3MI2 weather

South Fox Island Airport
Northport, Michigan, United States

Public forecast

Using degrees Fahrenheit for public forecast. Weather courtesy of forecast.io.

Closest aviation weather report (METAR) to South Fox Island Airport

Closest report is Beaver Island Airport, 20.8 nm (38.5 km) NNE. Retrieved 2020/08/05 04:35 UTC (13 minutes ago):

KSJX 050435Z AUTO 33004KT 10SM CLR 13/09 A3004 RMK AO2 T01310090

Closest aviation forecast (TAF) to South Fox Island Airport

Closest forecast is Cherry Capital Airport, 40.9 nm (75.7 km) SSE. Retrieved 2020-08-05 00:22 UTC (4 hours ago):

TAF KTVC 042320Z 0500/0524 34006KT P6SM BKN050 FM051500 30009KT P6SM BKN050